createdAt,value
2017-06-18T00:00:05.190Z,13.80
2017-06-18T00:01:01.435Z,12.20
2017-06-18T00:01:57.674Z,12.80
2017-06-18T00:02:53.955Z,12.40
2017-06-18T00:03:50.195Z,11.50
2017-06-18T00:04:46.434Z,13.60
2017-06-18T00:05:42.682Z,14.40
2017-06-18T00:06:39.214Z,12.70
2017-06-18T00:07:35.474Z,12.90
2017-06-18T00:08:31.714Z,12.20
2017-06-18T00:09:28.178Z,12.60
2017-06-18T00:10:24.414Z,13.30
2017-06-18T00:11:20.651Z,11.60
2017-06-18T00:12:16.903Z,12.30
2017-06-18T00:13:13.186Z,13.00
2017-06-18T00:14:09.438Z,13.70
2017-06-18T00:15:05.679Z,12.30
2017-06-18T00:16:01.932Z,12.90
2017-06-18T00:16:58.187Z,12.10
2017-06-18T00:17:54.474Z,12.50
2017-06-18T00:18:50.712Z,12.30
2017-06-18T00:19:46.955Z,12.90
2017-06-18T00:20:43.203Z,11.30
2017-06-18T00:21:39.430Z,11.40
2017-06-18T00:22:35.666Z,12.20
2017-06-18T00:23:31.936Z,13.70
2017-06-18T00:24:28.191Z,13.10
2017-06-18T00:25:24.422Z,12.40
2017-06-18T00:26:20.663Z,13.10
2017-06-18T00:27:16.906Z,12.70
2017-06-18T00:28:13.138Z,13.10
2017-06-18T00:29:09.394Z,14.80
2017-06-18T00:30:05.619Z,13.50
2017-06-18T00:31:01.858Z,12.90
2017-06-18T00:31:58.099Z,12.00
2017-06-18T00:32:54.347Z,12.50
2017-06-18T00:33:50.591Z,13.80
2017-06-18T00:34:46.846Z,14.10
2017-06-18T00:35:43.097Z,13.90
2017-06-18T00:36:39.339Z,12.80
2017-06-18T00:37:35.587Z,12.40
2017-06-18T00:38:31.835Z,12.30
2017-06-18T00:39:28.099Z,13.90
2017-06-18T00:40:24.342Z,14.30
2017-06-18T00:41:20.578Z,15.20
2017-06-18T00:42:16.806Z,12.50
2017-06-18T00:43:13.051Z,13.80
2017-06-18T00:44:09.329Z,12.40
2017-06-18T00:45:05.610Z,15.40
2017-06-18T00:46:01.863Z,13.10
2017-06-18T00:46:58.098Z,12.80
2017-06-18T00:47:54.344Z,12.90
2017-06-18T00:48:50.585Z,12.20
2017-06-18T00:49:46.839Z,13.20
2017-06-18T00:50:43.082Z,12.90
2017-06-18T00:51:39.311Z,15.10
2017-06-18T00:52:35.562Z,13.40
2017-06-18T00:53:31.795Z,13.00
2017-06-18T00:54:28.031Z,13.90
2017-06-18T00:55:24.295Z,13.50
2017-06-18T00:56:20.526Z,12.90
2017-06-18T00:57:16.768Z,14.10
2017-06-18T00:58:13.026Z,11.40
2017-06-18T00:59:09.287Z,12.40
2017-06-18T01:00:05.534Z,13.60
2017-06-18T01:01:01.798Z,15.80
2017-06-18T01:01:58.034Z,12.70
2017-06-18T01:02:54.275Z,12.60
2017-06-18T01:03:50.511Z,13.10
2017-06-18T01:04:46.770Z,13.20
2017-06-18T01:05:43.006Z,13.20
2017-06-18T01:06:39.255Z,13.10
2017-06-18T01:07:35.503Z,14.00
2017-06-18T01:08:31.746Z,14.20
2017-06-18T01:09:27.978Z,12.70
2017-06-18T01:10:24.206Z,14.50
2017-06-18T01:11:20.463Z,14.70
2017-06-18T01:12:16.697Z,12.80
2017-06-18T01:13:12.938Z,12.00
2017-06-18T01:14:09.207Z,13.30
2017-06-18T01:15:05.442Z,13.00
2017-06-18T01:16:01.687Z,11.40
2017-06-18T01:16:57.934Z,12.20
2017-06-18T01:17:54.171Z,13.60
2017-06-18T01:18:50.438Z,14.00
2017-06-18T01:19:46.690Z,12.20
2017-06-18T01:20:42.927Z,12.50
2017-06-18T01:21:39.202Z,13.40
2017-06-18T01:22:35.443Z,13.00
2017-06-18T01:23:31.683Z,13.00
2017-06-18T01:24:27.960Z,13.90
2017-06-18T01:25:24.213Z,13.30
2017-06-18T01:26:20.456Z,12.90
2017-06-18T01:27:16.734Z,12.90
2017-06-18T01:28:12.975Z,12.40
2017-06-18T01:29:09.298Z,12.70
2017-06-18T01:30:05.546Z,13.40
2017-06-18T01:31:01.803Z,13.20
2017-06-18T01:31:58.055Z,13.80
2017-06-18T01:32:54.306Z,13.50
2017-06-18T01:33:50.547Z,15.10
2017-06-18T01:34:46.784Z,12.00
2017-06-18T01:35:43.020Z,15.30
2017-06-18T01:36:39.250Z,13.10
2017-06-18T01:37:35.492Z,13.50
2017-06-18T01:38:31.751Z,16.80
2017-06-18T01:39:28.002Z,15.10
2017-06-18T01:40:24.234Z,17.60
2017-06-18T01:41:20.470Z,13.00
2017-06-18T01:42:16.707Z,14.20
2017-06-18T01:43:12.966Z,13.70
2017-06-18T01:44:09.210Z,14.70
2017-06-18T01:45:05.447Z,13.80
2017-06-18T01:46:01.682Z,15.60
2017-06-18T01:46:57.926Z,13.10
2017-06-18T01:47:54.199Z,14.80
2017-06-18T01:48:50.438Z,13.20
2017-06-18T01:49:46.679Z,14.30
2017-06-18T01:50:42.919Z,13.90
2017-06-18T01:51:39.166Z,12.70
2017-06-18T01:52:35.411Z,13.50
2017-06-18T01:53:31.671Z,12.60
2017-06-18T01:54:27.930Z,14.30
2017-06-18T01:55:24.175Z,12.80
2017-06-18T01:56:20.410Z,13.60
2017-06-18T01:57:16.648Z,13.70
2017-06-18T01:58:12.895Z,13.80
2017-06-18T01:59:09.158Z,13.30
2017-06-18T02:00:05.407Z,14.90
2017-06-18T02:01:01.668Z,13.10
2017-06-18T02:01:57.914Z,13.10
2017-06-18T02:02:54.153Z,13.80
2017-06-18T02:03:50.394Z,14.30
2017-06-18T02:04:46.656Z,14.20
2017-06-18T02:05:42.899Z,13.40
2017-06-18T02:06:39.138Z,13.30
2017-06-18T02:07:35.378Z,13.90
2017-06-18T02:08:31.631Z,14.40
2017-06-18T02:09:27.871Z,13.50
2017-06-18T02:10:24.191Z,14.60
2017-06-18T02:11:20.441Z,14.60
2017-06-18T02:12:16.675Z,14.20
2017-06-18T02:13:12.927Z,14.10
2017-06-18T02:14:09.158Z,14.90
2017-06-18T02:15:06.503Z,13.00
2017-06-18T02:16:02.770Z,14.40
2017-06-18T02:16:59.038Z,15.70
2017-06-18T02:17:55.291Z,14.80
2017-06-18T02:18:51.554Z,14.90
2017-06-18T02:19:47.799Z,14.60
2017-06-18T02:20:44.067Z,14.80
2017-06-18T02:21:40.303Z,14.90
2017-06-18T02:22:36.547Z,15.90
2017-06-18T02:23:32.790Z,15.70
2017-06-18T02:24:29.023Z,13.90
2017-06-18T02:25:25.282Z,15.40
2017-06-18T02:26:21.523Z,15.50
2017-06-18T02:27:17.763Z,14.70
2017-06-18T02:28:14.009Z,15.30
2017-06-18T02:29:10.264Z,15.30
2017-06-18T02:30:06.514Z,14.00
2017-06-18T02:31:02.807Z,15.30
2017-06-18T02:31:59.052Z,15.90
2017-06-18T02:32:55.287Z,15.40
2017-06-18T02:33:51.534Z,15.70
2017-06-18T02:34:47.782Z,16.40
2017-06-18T02:35:44.033Z,15.50
2017-06-18T02:36:40.312Z,16.40
2017-06-18T02:37:36.563Z,13.80
2017-06-18T02:38:32.802Z,13.70
2017-06-18T02:39:29.058Z,13.80
2017-06-18T02:40:25.303Z,14.70
2017-06-18T02:41:21.571Z,15.60
2017-06-18T02:42:17.841Z,14.50
2017-06-18T02:43:14.086Z,16.10
2017-06-18T02:44:10.331Z,17.00
2017-06-18T02:45:06.579Z,15.20
2017-06-18T02:46:02.835Z,14.30
2017-06-18T02:46:59.112Z,14.60
2017-06-18T02:47:55.356Z,14.40
2017-06-18T02:48:51.602Z,14.50
2017-06-18T02:49:47.862Z,14.70
2017-06-18T02:50:44.103Z,14.70
2017-06-18T02:51:40.360Z,15.30
2017-06-18T02:52:36.643Z,18.00
2017-06-18T02:53:32.886Z,15.60
2017-06-18T02:54:29.135Z,14.30
2017-06-18T02:55:25.374Z,14.20
2017-06-18T02:56:21.619Z,14.80
2017-06-18T02:57:17.875Z,15.30
2017-06-18T02:58:14.138Z,15.30
2017-06-18T02:59:10.371Z,13.90
2017-06-18T03:00:06.620Z,14.00
2017-06-18T03:01:02.867Z,14.30
2017-06-18T03:01:59.122Z,14.00
2017-06-18T03:02:55.363Z,14.50
2017-06-18T03:03:51.615Z,15.10
2017-06-18T03:04:47.862Z,15.80
2017-06-18T03:05:44.107Z,15.20
2017-06-18T03:06:40.405Z,16.00
2017-06-18T03:07:36.642Z,15.80
2017-06-18T03:08:32.914Z,15.70
2017-06-18T03:09:29.155Z,15.90
2017-06-18T03:10:25.414Z,17.70
2017-06-18T03:11:21.667Z,16.50
2017-06-18T03:12:17.919Z,16.20
2017-06-18T03:13:14.150Z,15.80
2017-06-18T03:14:10.406Z,15.30
2017-06-18T03:15:06.662Z,16.00
2017-06-18T03:16:02.911Z,18.80
2017-06-18T03:16:59.160Z,16.90
2017-06-18T03:17:55.400Z,15.30
2017-06-18T03:18:51.661Z,16.00
2017-06-18T03:19:47.951Z,16.40
2017-06-18T03:20:44.178Z,17.40
2017-06-18T03:21:45.142Z,16.60
2017-06-18T03:22:46.083Z,16.80
2017-06-18T03:23:47.023Z,16.30
2017-06-18T03:24:43.279Z,18.80
2017-06-18T03:25:39.519Z,15.80
2017-06-18T03:26:35.766Z,16.20
2017-06-18T03:27:32.035Z,18.00
2017-06-18T03:28:28.275Z,16.60
2017-06-18T03:29:24.551Z,16.40
2017-06-18T03:30:20.787Z,17.30
2017-06-18T03:31:17.047Z,17.10
2017-06-18T03:32:13.282Z,17.70
2017-06-18T03:33:09.527Z,16.80
2017-06-18T03:34:05.762Z,17.20
2017-06-18T03:35:02.050Z,18.20
2017-06-18T03:35:58.284Z,17.90
2017-06-18T03:36:54.526Z,17.30
2017-06-18T03:37:50.776Z,16.20
2017-06-18T03:38:47.015Z,18.10
2017-06-18T03:39:43.254Z,16.40
2017-06-18T03:40:39.503Z,18.60
2017-06-18T03:41:35.734Z,18.70
2017-06-18T03:42:32.030Z,16.00
2017-06-18T03:43:28.268Z,16.10
2017-06-18T03:44:24.527Z,16.40
2017-06-18T03:45:20.786Z,17.20
2017-06-18T03:46:17.027Z,14.70
2017-06-18T03:47:13.262Z,16.90
2017-06-18T03:48:09.502Z,17.00
2017-06-18T03:49:05.730Z,16.70
2017-06-18T03:50:01.986Z,16.40
2017-06-18T03:50:58.246Z,17.90
2017-06-18T03:51:54.487Z,16.50
2017-06-18T03:52:50.730Z,16.70
2017-06-18T03:53:46.970Z,16.80
2017-06-18T03:54:43.211Z,15.80
2017-06-18T03:55:39.451Z,16.60
2017-06-18T03:56:35.708Z,16.90
2017-06-18T03:57:31.947Z,17.90
2017-06-18T03:58:28.190Z,16.50
2017-06-18T03:59:24.429Z,15.90
2017-06-18T04:00:20.659Z,15.50
2017-06-18T04:01:16.922Z,17.40
2017-06-18T04:02:13.166Z,17.90
2017-06-18T04:03:09.406Z,16.90
2017-06-18T04:04:05.651Z,17.60
2017-06-18T04:05:01.890Z,18.60
2017-06-18T04:05:58.133Z,18.90
2017-06-18T04:06:54.387Z,18.60
2017-06-18T04:07:50.622Z,19.30
2017-06-18T04:08:46.879Z,20.70
2017-06-18T04:09:43.118Z,24.20
2017-06-18T04:10:39.355Z,18.20
2017-06-18T04:11:35.595Z,18.90
2017-06-18T04:12:31.854Z,19.40
2017-06-18T04:13:28.095Z,19.10
2017-06-18T04:14:24.346Z,18.70
2017-06-18T04:15:20.589Z,19.00
2017-06-18T04:16:16.836Z,17.20
2017-06-18T04:17:13.098Z,20.20
2017-06-18T04:18:09.329Z,18.30
2017-06-18T04:19:05.562Z,18.40
2017-06-18T04:20:01.801Z,18.20
2017-06-18T04:20:58.039Z,19.10
2017-06-18T04:21:54.283Z,18.70
2017-06-18T04:22:50.531Z,16.90
2017-06-18T04:23:46.794Z,16.10
2017-06-18T04:24:43.031Z,17.20
2017-06-18T04:25:39.294Z,18.30
2017-06-18T04:26:35.586Z,16.20
2017-06-18T04:27:31.884Z,15.10
2017-06-18T04:28:28.178Z,16.80
2017-06-18T04:29:24.479Z,16.40
2017-06-18T04:30:20.766Z,16.60
2017-06-18T04:31:17.007Z,15.30
2017-06-18T04:32:13.246Z,16.80
2017-06-18T04:33:09.490Z,15.80
2017-06-18T04:34:05.750Z,17.00
2017-06-18T04:35:01.988Z,18.70
2017-06-18T04:35:58.242Z,13.90
2017-06-18T04:36:54.527Z,16.00
2017-06-18T04:37:50.787Z,15.80
2017-06-18T04:38:47.043Z,14.40
2017-06-18T04:39:43.282Z,15.00
2017-06-18T04:40:39.523Z,14.80
2017-06-18T04:41:35.823Z,17.40
2017-06-18T04:42:32.059Z,15.20
2017-06-18T04:43:28.306Z,15.40
2017-06-18T04:44:24.580Z,16.00
2017-06-18T04:45:20.822Z,16.90
2017-06-18T04:46:17.099Z,15.30
2017-06-18T04:47:13.326Z,15.80
2017-06-18T04:48:09.566Z,16.50
2017-06-18T04:49:05.818Z,15.00
2017-06-18T04:50:02.087Z,16.70
2017-06-18T04:50:58.326Z,16.00
2017-06-18T04:51:54.576Z,15.00
2017-06-18T04:52:50.818Z,18.10
2017-06-18T04:53:47.071Z,13.40
2017-06-18T04:54:43.333Z,16.00
2017-06-18T04:55:39.571Z,14.60
2017-06-18T04:56:35.806Z,14.40
2017-06-18T04:57:32.042Z,15.30
2017-06-18T04:58:28.282Z,13.80
2017-06-18T04:59:24.538Z,16.80
2017-06-18T05:00:20.804Z,13.50
2017-06-18T05:01:17.034Z,15.20
2017-06-18T05:02:13.262Z,14.60
2017-06-18T05:03:09.494Z,15.30
2017-06-18T05:04:05.736Z,17.50
2017-06-18T05:05:01.993Z,16.10
2017-06-18T05:05:58.219Z,14.70
2017-06-18T05:06:54.491Z,14.10
2017-06-18T05:07:50.726Z,15.20
2017-06-18T05:08:46.950Z,16.10
2017-06-18T05:09:43.186Z,14.70
2017-06-18T05:10:39.426Z,15.30
2017-06-18T05:11:35.655Z,14.30
2017-06-18T05:12:31.897Z,13.70
2017-06-18T05:13:28.135Z,14.80
2017-06-18T05:14:24.359Z,15.00
2017-06-18T05:15:20.595Z,15.00
2017-06-18T05:16:16.838Z,17.50
2017-06-18T05:17:13.071Z,16.10
2017-06-18T05:18:09.315Z,15.20
2017-06-18T05:19:05.542Z,16.20
2017-06-18T05:20:01.790Z,17.20
2017-06-18T05:20:58.063Z,15.80
2017-06-18T05:21:54.300Z,16.90
2017-06-18T05:22:50.539Z,15.10
2017-06-18T05:23:46.762Z,15.00
2017-06-18T05:24:42.994Z,15.20
2017-06-18T05:25:39.250Z,15.70
2017-06-18T05:26:35.518Z,17.50
2017-06-18T05:27:31.790Z,15.30
2017-06-18T05:28:28.047Z,14.90
2017-06-18T05:29:24.274Z,15.40
2017-06-18T05:30:20.518Z,15.30
2017-06-18T05:31:16.762Z,14.80
2017-06-18T05:32:13.019Z,15.20
2017-06-18T05:33:09.247Z,13.90
2017-06-18T05:34:05.487Z,14.90
2017-06-18T05:35:01.727Z,14.30
2017-06-18T05:35:57.979Z,14.20
2017-06-18T05:36:54.231Z,15.40
2017-06-18T05:37:50.472Z,13.70
2017-06-18T05:38:46.745Z,14.80
2017-06-18T05:39:42.970Z,15.40
2017-06-18T05:40:39.210Z,12.20
2017-06-18T05:41:35.447Z,14.50
2017-06-18T05:42:31.702Z,13.80
2017-06-18T05:43:27.941Z,13.50
2017-06-18T05:44:24.167Z,12.50
2017-06-18T05:45:20.420Z,13.80
2017-06-18T05:46:16.670Z,13.00
2017-06-18T05:47:12.914Z,12.20
2017-06-18T05:48:09.159Z,13.40
2017-06-18T05:49:05.386Z,12.00
2017-06-18T05:50:01.630Z,13.10
2017-06-18T05:50:57.867Z,11.20
2017-06-18T05:51:54.107Z,12.90
2017-06-18T05:52:50.370Z,12.50
2017-06-18T05:53:46.599Z,10.80
2017-06-18T05:54:42.834Z,12.60
2017-06-18T05:55:39.078Z,12.40
2017-06-18T05:56:35.311Z,11.50
2017-06-18T05:57:31.595Z,12.30
2017-06-18T05:58:27.836Z,11.30
2017-06-18T05:59:24.088Z,11.60
2017-06-18T06:00:20.335Z,11.30
2017-06-18T06:01:16.577Z,10.10
2017-06-18T06:02:12.811Z,12.10
2017-06-18T06:03:09.066Z,11.50
2017-06-18T06:04:05.302Z,10.80
2017-06-18T06:05:01.542Z,12.20
2017-06-18T06:05:57.787Z,12.20
2017-06-18T06:06:54.031Z,11.10
2017-06-18T06:07:50.275Z,11.00
2017-06-18T06:08:46.514Z,13.00
2017-06-18T06:09:42.738Z,14.60
2017-06-18T06:10:38.970Z,10.60
2017-06-18T06:11:35.190Z,10.50
2017-06-18T06:12:31.414Z,11.70
2017-06-18T06:13:27.663Z,13.40
2017-06-18T06:14:23.903Z,11.80
2017-06-18T06:15:20.147Z,10.70
2017-06-18T06:16:16.391Z,10.90
2017-06-18T06:17:12.629Z,13.30
2017-06-18T06:18:08.879Z,10.90
2017-06-18T06:19:05.175Z,10.60
2017-06-18T06:20:01.415Z,10.30
2017-06-18T06:20:57.655Z,9.50
2017-06-18T06:21:53.894Z,10.30
2017-06-18T06:22:50.139Z,9.10
2017-06-18T06:23:46.386Z,9.50
2017-06-18T06:24:42.626Z,9.80
2017-06-18T06:25:38.846Z,9.20
2017-06-18T06:26:35.083Z,10.80
2017-06-18T06:27:31.307Z,9.50
2017-06-18T06:28:27.588Z,8.30
2017-06-18T06:29:23.818Z,9.70
2017-06-18T06:30:20.059Z,9.00
2017-06-18T06:31:16.311Z,8.50
2017-06-18T06:32:12.554Z,11.80
2017-06-18T06:33:08.798Z,9.40
2017-06-18T06:34:05.062Z,9.40
2017-06-18T06:35:01.306Z,9.20
2017-06-18T06:35:57.538Z,9.20
2017-06-18T06:36:53.766Z,8.20
2017-06-18T06:37:50.000Z,7.80
2017-06-18T06:38:46.246Z,8.70
2017-06-18T06:39:42.490Z,7.80
2017-06-18T06:40:38.730Z,8.20
2017-06-18T06:41:34.962Z,8.30
2017-06-18T06:42:31.225Z,7.40
2017-06-18T06:43:27.521Z,7.10
2017-06-18T06:44:23.771Z,6.50
2017-06-18T06:45:20.014Z,7.00
2017-06-18T06:46:16.255Z,8.10
2017-06-18T06:47:12.499Z,6.20
2017-06-18T06:48:08.734Z,6.60
2017-06-18T06:49:04.978Z,6.90
2017-06-18T06:50:01.210Z,7.20
2017-06-18T06:50:57.463Z,7.00
2017-06-18T06:51:53.704Z,8.10
2017-06-18T06:52:49.943Z,5.90
2017-06-18T06:53:46.172Z,6.60
2017-06-18T06:54:42.439Z,7.90
2017-06-18T06:55:38.674Z,6.30
2017-06-18T06:56:34.910Z,8.00
2017-06-18T06:57:31.146Z,6.90
2017-06-18T06:58:27.382Z,8.30
2017-06-18T06:59:23.643Z,7.80
2017-06-18T07:00:19.871Z,7.30
2017-06-18T07:01:16.119Z,8.00
2017-06-18T07:02:12.364Z,7.40
2017-06-18T07:03:08.607Z,6.30
2017-06-18T07:04:04.839Z,5.90
2017-06-18T07:05:01.090Z,6.60
2017-06-18T07:05:57.334Z,6.60
2017-06-18T07:06:53.571Z,6.00
2017-06-18T07:07:49.798Z,6.70
2017-06-18T07:08:46.046Z,6.60
2017-06-18T07:09:42.283Z,6.20
2017-06-18T07:10:38.546Z,6.90
2017-06-18T07:11:34.774Z,6.40
2017-06-18T07:12:31.010Z,5.90
2017-06-18T07:13:27.256Z,5.10
2017-06-18T07:14:23.494Z,6.10
2017-06-18T07:15:19.733Z,4.70
2017-06-18T07:16:15.980Z,5.10
2017-06-18T07:17:12.235Z,5.00
2017-06-18T07:18:08.550Z,5.00
2017-06-18T07:19:04.790Z,6.20
2017-06-18T07:20:01.032Z,5.60
2017-06-18T07:20:57.275Z,4.90
2017-06-18T07:21:53.522Z,4.90
2017-06-18T07:22:49.781Z,6.80
2017-06-18T07:23:46.041Z,5.40
2017-06-18T07:24:42.280Z,5.10
2017-06-18T07:25:38.514Z,6.10
2017-06-18T07:26:34.770Z,5.00
2017-06-18T07:27:31.011Z,6.30
2017-06-18T07:28:27.250Z,5.40
2017-06-18T07:29:23.483Z,5.20
2017-06-18T07:30:19.715Z,4.70
2017-06-18T07:31:15.950Z,4.50
2017-06-18T07:32:12.206Z,4.90
2017-06-18T07:33:08.439Z,4.40
2017-06-18T07:34:04.682Z,5.30
2017-06-18T07:35:00.923Z,4.60
2017-06-18T07:35:57.193Z,5.50
2017-06-18T07:36:53.411Z,5.40
2017-06-18T07:37:49.656Z,4.90
2017-06-18T07:38:45.906Z,5.50
2017-06-18T07:39:42.150Z,5.00
2017-06-18T07:40:38.382Z,4.90
2017-06-18T07:41:34.613Z,4.90
2017-06-18T07:42:30.839Z,5.00
2017-06-18T07:43:27.114Z,6.70
2017-06-18T07:44:23.347Z,5.90
2017-06-18T07:45:19.586Z,6.20
2017-06-18T07:46:18.588Z,5.10
2017-06-18T07:47:15.258Z,5.30
2017-06-18T07:48:11.531Z,4.80
2017-06-18T07:49:07.774Z,5.30
2017-06-18T07:50:04.022Z,4.80
2017-06-18T07:51:00.287Z,4.40
2017-06-18T07:51:56.538Z,5.30
2017-06-18T07:52:52.789Z,5.20
2017-06-18T07:53:49.067Z,4.80
2017-06-18T07:54:45.310Z,5.30
2017-06-18T07:55:41.582Z,4.60
2017-06-18T07:56:37.838Z,4.70
2017-06-18T07:57:34.074Z,6.20
2017-06-18T07:58:30.358Z,5.00
2017-06-18T07:59:26.626Z,5.60
2017-06-18T08:00:22.858Z,5.40
2017-06-18T08:01:19.090Z,5.10
2017-06-18T08:02:15.337Z,5.00
2017-06-18T08:03:11.586Z,4.80
2017-06-18T08:04:07.842Z,4.10
2017-06-18T08:05:05.010Z,4.80
2017-06-18T08:06:01.251Z,5.00
2017-06-18T08:06:57.499Z,4.80
2017-06-18T08:07:53.759Z,4.50
2017-06-18T08:08:49.998Z,3.90
2017-06-18T08:09:46.255Z,4.40
2017-06-18T08:10:42.507Z,4.10
2017-06-18T08:11:38.758Z,6.70
2017-06-18T08:12:34.995Z,3.90
2017-06-18T08:13:31.227Z,3.60
2017-06-18T08:14:27.470Z,4.10
2017-06-18T08:15:23.722Z,3.70
2017-06-18T08:16:19.970Z,4.20
2017-06-18T08:17:16.235Z,5.40
2017-06-18T08:18:12.447Z,3.50
2017-06-18T08:19:08.688Z,3.50
2017-06-18T08:20:04.975Z,4.00
2017-06-18T08:21:01.219Z,3.70
2017-06-18T08:21:57.458Z,3.60
2017-06-18T08:22:53.703Z,3.90
2017-06-18T08:23:49.947Z,3.80
2017-06-18T08:24:46.198Z,3.90
2017-06-18T08:25:42.462Z,4.60
2017-06-18T08:26:38.718Z,3.50
2017-06-18T08:27:34.960Z,3.60
2017-06-18T08:28:31.202Z,4.90
2017-06-18T08:29:27.460Z,3.30
2017-06-18T08:30:23.730Z,5.70
2017-06-18T08:31:19.989Z,4.00
2017-06-18T08:32:16.226Z,3.70
2017-06-18T08:33:12.470Z,4.00
2017-06-18T08:34:08.712Z,6.80
2017-06-18T08:35:04.960Z,3.40
2017-06-18T08:36:01.231Z,3.50
2017-06-18T08:36:57.479Z,3.60
2017-06-18T08:37:53.719Z,3.50
2017-06-18T08:38:49.954Z,3.80
2017-06-18T08:39:46.242Z,3.30
2017-06-18T08:40:42.539Z,3.60
2017-06-18T08:41:38.806Z,3.30
2017-06-18T08:42:35.063Z,3.80
2017-06-18T08:43:31.329Z,3.50
2017-06-18T08:44:27.586Z,3.50
2017-06-18T08:45:23.814Z,3.70
2017-06-18T08:46:20.054Z,3.40
2017-06-18T08:47:16.312Z,4.60
2017-06-18T08:48:12.562Z,3.60
2017-06-18T08:49:08.807Z,5.00
2017-06-18T08:50:05.074Z,4.20
2017-06-18T08:51:01.310Z,3.80
2017-06-18T08:51:57.571Z,3.60
2017-06-18T08:52:53.811Z,3.40
2017-06-18T08:53:50.050Z,3.60
2017-06-18T08:54:46.298Z,3.90
2017-06-18T08:55:42.539Z,3.40
2017-06-18T08:56:38.782Z,3.50
2017-06-18T08:57:35.045Z,3.80
2017-06-18T08:58:31.292Z,4.50
2017-06-18T08:59:27.538Z,3.40
2017-06-18T09:00:23.779Z,3.60
2017-06-18T09:01:20.034Z,3.40
2017-06-18T09:02:16.291Z,4.00
2017-06-18T09:03:12.549Z,3.80
2017-06-18T09:04:08.791Z,3.20
2017-06-18T09:05:05.046Z,5.70
2017-06-18T09:06:01.291Z,3.90
2017-06-18T09:06:57.539Z,3.20
2017-06-18T09:07:53.799Z,3.40
2017-06-18T09:08:50.434Z,3.30
2017-06-18T09:09:46.675Z,3.80
2017-06-18T09:10:42.924Z,2.90
2017-06-18T09:11:39.167Z,2.80
2017-06-18T09:12:35.414Z,2.90
2017-06-18T09:13:31.667Z,3.00
2017-06-18T09:14:27.916Z,2.90
2017-06-18T09:15:24.162Z,2.60
2017-06-18T09:16:20.415Z,2.40
2017-06-18T09:17:16.655Z,3.00
2017-06-18T09:18:12.914Z,1.90
2017-06-18T09:19:09.170Z,2.60
2017-06-18T09:20:05.410Z,2.60
2017-06-18T09:21:01.670Z,2.60
2017-06-18T09:21:57.914Z,2.70
2017-06-18T09:22:54.159Z,2.70
2017-06-18T09:23:50.410Z,4.30
2017-06-18T09:24:46.642Z,2.70
2017-06-18T09:25:42.900Z,2.70
2017-06-18T09:26:39.182Z,2.60
2017-06-18T09:27:35.438Z,2.40
2017-06-18T09:28:31.688Z,3.50
2017-06-18T09:29:27.938Z,2.60
2017-06-18T09:30:24.174Z,3.00
2017-06-18T09:31:20.423Z,2.20
2017-06-18T09:32:16.680Z,3.00
2017-06-18T09:33:12.934Z,3.40
2017-06-18T09:34:09.196Z,2.90
2017-06-18T09:35:05.426Z,3.20
2017-06-18T09:36:01.707Z,3.00
2017-06-18T09:36:57.987Z,3.30
2017-06-18T09:37:54.226Z,2.30
2017-06-18T09:38:50.482Z,3.10
2017-06-18T09:39:46.760Z,2.80
2017-06-18T09:40:43.063Z,2.60
2017-06-18T09:41:39.326Z,2.90
2017-06-18T09:42:35.582Z,2.80
2017-06-18T09:43:31.869Z,2.70
2017-06-18T09:44:28.134Z,3.00
2017-06-18T09:45:24.383Z,2.80
2017-06-18T09:46:20.630Z,2.90
2017-06-18T09:47:16.911Z,3.20
2017-06-18T09:48:13.194Z,3.50
2017-06-18T09:49:09.426Z,3.70
2017-06-18T09:50:05.698Z,2.80
2017-06-18T09:51:01.951Z,3.50
2017-06-18T09:51:58.205Z,3.10
2017-06-18T09:52:54.899Z,3.90
2017-06-18T09:53:51.151Z,3.10
2017-06-18T09:54:47.389Z,3.50
2017-06-18T09:55:43.646Z,9.20
2017-06-18T09:56:39.902Z,2.70
2017-06-18T09:57:36.145Z,3.10
2017-06-18T09:58:32.383Z,3.40
2017-06-18T09:59:28.646Z,2.50
2017-06-18T10:00:24.902Z,3.30
2017-06-18T10:01:21.186Z,2.80
2017-06-18T10:02:17.457Z,3.50
2017-06-18T10:03:13.694Z,3.10
2017-06-18T10:04:10.139Z,2.50
2017-06-18T10:05:06.620Z,3.40
2017-06-18T10:06:02.886Z,3.30
2017-06-18T10:06:59.143Z,3.10
2017-06-18T10:07:55.399Z,3.80
2017-06-18T10:08:51.651Z,3.30
2017-06-18T10:09:47.895Z,4.00
2017-06-18T10:10:44.133Z,3.30
2017-06-18T10:11:40.523Z,3.40
2017-06-18T10:12:36.794Z,3.60
2017-06-18T10:13:33.045Z,3.00
2017-06-18T10:14:29.274Z,3.70
2017-06-18T10:15:25.517Z,3.30
2017-06-18T10:16:21.791Z,3.60
2017-06-18T10:17:18.252Z,3.00
2017-06-18T10:18:14.494Z,3.80
2017-06-18T10:19:10.747Z,2.90
2017-06-18T10:20:06.995Z,3.20
2017-06-18T10:21:03.238Z,3.30
2017-06-18T10:22:04.183Z,3.10
2017-06-18T10:23:05.118Z,3.10
2017-06-18T10:24:06.056Z,3.10
2017-06-18T10:25:02.286Z,7.30
2017-06-18T10:25:58.534Z,4.10
2017-06-18T10:26:54.799Z,3.50
2017-06-18T10:27:51.058Z,3.10
2017-06-18T10:28:47.291Z,3.20
2017-06-18T10:29:43.532Z,3.30
2017-06-18T10:30:39.778Z,2.90
2017-06-18T10:31:36.018Z,3.40
2017-06-18T10:32:32.358Z,2.90
2017-06-18T10:33:28.606Z,2.90
2017-06-18T10:34:24.851Z,3.90
2017-06-18T10:35:21.115Z,4.00
2017-06-18T10:36:17.411Z,3.30
2017-06-18T10:37:13.711Z,3.70
2017-06-18T10:38:09.955Z,3.60
2017-06-18T10:39:06.215Z,3.50
2017-06-18T10:40:02.495Z,3.50
2017-06-18T10:40:58.727Z,3.70
2017-06-18T10:41:54.978Z,4.50
2017-06-18T10:42:51.259Z,3.60
2017-06-18T10:43:47.486Z,3.30
2017-06-18T10:44:43.723Z,3.70
2017-06-18T10:45:39.978Z,4.80
2017-06-18T10:46:36.222Z,2.70
2017-06-18T10:47:32.476Z,3.40
2017-06-18T10:48:28.742Z,3.20
2017-06-18T10:49:24.974Z,3.00
2017-06-18T10:50:21.214Z,2.80
2017-06-18T10:51:17.474Z,3.20
2017-06-18T10:52:13.714Z,2.90
2017-06-18T10:53:09.990Z,2.90
2017-06-18T10:54:07.095Z,3.00
2017-06-18T10:55:03.323Z,3.20
2017-06-18T10:55:59.567Z,3.70
2017-06-18T10:56:55.810Z,4.00
2017-06-18T10:57:52.062Z,3.50
2017-06-18T10:58:48.343Z,3.20
2017-06-18T10:59:44.598Z,3.50
2017-06-18T11:00:40.853Z,2.60
2017-06-18T11:01:37.094Z,3.30
2017-06-18T11:02:33.350Z,2.70
2017-06-18T11:03:29.594Z,2.90
2017-06-18T11:04:25.858Z,3.80
2017-06-18T11:05:22.106Z,4.20
2017-06-18T11:06:18.354Z,3.00
2017-06-18T11:07:14.598Z,2.50
2017-06-18T11:08:10.843Z,2.90
2017-06-18T11:09:07.130Z,3.30
2017-06-18T11:10:03.374Z,7.20
2017-06-18T11:10:59.619Z,3.00
2017-06-18T11:11:55.859Z,2.90
2017-06-18T11:12:52.118Z,2.40
2017-06-18T11:13:48.378Z,3.20
2017-06-18T11:14:44.644Z,2.70
2017-06-18T11:15:40.919Z,2.90
2017-06-18T11:16:37.158Z,2.80
2017-06-18T11:17:33.394Z,2.70
2017-06-18T11:18:29.635Z,2.60
2017-06-18T11:19:25.866Z,3.00
2017-06-18T11:20:22.146Z,3.50
2017-06-18T11:21:18.378Z,2.90
2017-06-18T11:22:14.619Z,2.90
2017-06-18T11:23:10.863Z,4.80
2017-06-18T11:24:07.126Z,3.40
2017-06-18T11:25:03.374Z,3.50
2017-06-18T11:25:59.627Z,3.10
2017-06-18T11:26:55.874Z,2.90
2017-06-18T11:27:52.114Z,3.20
2017-06-18T11:28:48.355Z,2.90
2017-06-18T11:29:44.611Z,3.40
2017-06-18T11:30:40.890Z,2.90
2017-06-18T11:31:37.147Z,3.40
2017-06-18T11:32:33.391Z,2.40
2017-06-18T11:33:29.639Z,2.70
2017-06-18T11:34:25.903Z,2.50
2017-06-18T11:35:22.146Z,3.00
2017-06-18T11:36:18.422Z,2.80
2017-06-18T11:37:14.668Z,2.90
2017-06-18T11:38:10.915Z,3.40
2017-06-18T11:39:07.166Z,3.00
2017-06-18T11:40:03.411Z,2.60
2017-06-18T11:40:59.679Z,2.90
2017-06-18T11:41:55.928Z,2.90
2017-06-18T11:42:52.166Z,2.80
2017-06-18T11:43:48.411Z,6.30
2017-06-18T11:44:44.654Z,3.30
2017-06-18T11:45:40.946Z,3.60
2017-06-18T11:46:37.218Z,3.00
2017-06-18T11:47:33.462Z,3.10
2017-06-18T11:48:29.706Z,2.90
2017-06-18T11:49:25.950Z,2.80
2017-06-18T11:50:22.195Z,2.90
2017-06-18T11:51:18.452Z,2.80
2017-06-18T11:52:14.692Z,4.60
2017-06-18T11:53:10.923Z,3.30
2017-06-18T11:54:07.167Z,2.90
2017-06-18T11:55:03.794Z,3.10
2017-06-18T11:56:00.059Z,3.10
2017-06-18T11:56:56.330Z,3.50
2017-06-18T11:57:52.563Z,2.40
2017-06-18T11:58:48.821Z,13.20
2017-06-18T11:59:45.054Z,7.20
2017-06-18T12:00:41.282Z,3.90
2017-06-18T12:01:37.526Z,3.80
2017-06-18T12:02:33.782Z,3.30
2017-06-18T12:03:30.022Z,3.70
2017-06-18T12:04:26.251Z,3.60
2017-06-18T12:05:22.547Z,3.10
2017-06-18T12:06:18.783Z,2.50
2017-06-18T12:07:15.051Z,4.00
2017-06-18T12:08:11.298Z,2.80
2017-06-18T12:09:07.531Z,2.90
2017-06-18T12:10:03.758Z,2.60
2017-06-18T12:11:00.056Z,2.70
2017-06-18T12:11:56.295Z,4.10
2017-06-18T12:12:52.563Z,3.00
2017-06-18T12:13:48.846Z,2.80
2017-06-18T12:14:45.082Z,2.60
2017-06-18T12:15:41.310Z,2.80